WetterOnline ( https://www.wetteronline.de )

Wetter aktuell Olbernhau

Aktuelles Wetter: Marienberg (640m)

6-stündlich | Neueste Meldungen
Ortszeit Temperatur Wetter
Fr, 23.02. 7:00 4.3° C bewölkt
Fr, 23.02. 1:00 8.9° C bewölkt
Do, 22.02. 19:00 8.2° C leichter Regen
Do, 22.02. 13:00 7.7° C leichter Regen
Do, 22.02. 7:00 5.6° C leichter Regen
Do, 22.02. 1:00 8.4° C bewölkt
Mi, 21.02. 19:00 6.6° C bewölkt
Mi, 21.02. 13:00 8.1° C wolkig
Ortszeit Temperatur Wetter
Fr, 23.02. 8:30 3.9° C wolkig
Fr, 23.02. 8:20 3.9° C wolkig
Fr, 23.02. 8:10 3.8° C bedeckt
Fr, 23.02. 8:00 3.9° C bedeckt
Fr, 23.02. 7:50 3.9° C bedeckt
Fr, 23.02. 7:40 3.9° C bedeckt
Fr, 23.02. 7:30 4.0° C bedeckt
Fr, 23.02. 7:00 4.3° C bewölkt
Fr, 23.02. 6:30 4.5° C bewölkt
Fr, 23.02. 6:00 4.8° C wolkig
Fr, 23.02. 5:30 4.9° C wolkig
Ortszeit Relative Feuchte Sichtweite
Fr, 23.02. 7:00 67% 65 km
Fr, 23.02. 1:00 73% >70 km
Do, 22.02. 19:00 84% 35 km
Do, 22.02. 13:00 81% 65 km
Do, 22.02. 7:00 85% 23 km
Do, 22.02. 1:00 48% >70 km
Mi, 21.02. 19:00 56% 50 km
Mi, 21.02. 13:00 57% 40 km
Ortszeit Relative Feuchte Sichtweite
Fr, 23.02. 8:30 70% >70 km
Fr, 23.02. 8:20 70% -
Fr, 23.02. 8:10 69% -
Fr, 23.02. 8:00 67% >70 km
Fr, 23.02. 7:50 67% -
Fr, 23.02. 7:40 66% -
Fr, 23.02. 7:30 67% 60 km
Fr, 23.02. 7:00 67% 65 km
Fr, 23.02. 6:30 66% >70 km
Fr, 23.02. 6:00 66% >70 km
Fr, 23.02. 5:30 66% 60 km
Ortszeit Niederschlagsmenge Niederschlagsart
Fr, 23.02. 7:00 0.4 l/m2 in 12 Std. -
Fr, 23.02. 1:00 0.4 l/m2 in 6 Std. Regen
Do, 22.02. 19:00 0.2 l/m2 in 12 Std. Regen
Do, 22.02. 13:00 0.2 l/m2 in 6 Std. Regen
Do, 22.02. 7:00 0.3 l/m2 in 12 Std. Regen
Do, 22.02. 1:00 0.0 l/m2 in 6 Std. -
Mi, 21.02. 19:00 0.1 l/m2 in 12 Std. -
Mi, 21.02. 13:00 0.1 l/m2 in 6 Std. Regen
Ortszeit Niederschlagsmenge Niederschlagsart
Fr, 23.02. 8:30 0.0 l/m2 in 30 Min -
Fr, 23.02. 8:20 keine Meldung -
Fr, 23.02. 8:10 keine Meldung -
Fr, 23.02. 8:00 0.0 l/m2 in 1 Std. -
Fr, 23.02. 7:50 keine Meldung -
Fr, 23.02. 7:40 keine Meldung -
Fr, 23.02. 7:30 0.0 l/m2 in 30 Min -
Fr, 23.02. 7:00 0.0 l/m2 in 1 Std. -
Fr, 23.02. 6:30 0.0 l/m2 in 30 Min -
Fr, 23.02. 6:00 0.0 l/m2 in 1 Std. -
Fr, 23.02. 5:30 0.0 l/m2 in 30 Min -
Ortszeit Stärke Spitze Richtung
km/h Bft. km/h Grad Sektor
Fr, 23.02. 7:00 14 3 50 250° W
Fr, 23.02. 1:00 28 4 56 230° SW
Do, 22.02. 19:00 17 3 44 230° SW
Do, 22.02. 13:00 18 3 43 240° SW
Do, 22.02. 7:00 18 3 47 240° SW
Do, 22.02. 1:00 14 3 36 220° SW
Mi, 21.02. 19:00 14 3 36 230° SW
Mi, 21.02. 13:00 14 3 36 240° SW
Ortszeit Stärke Spitze Richtung
km/h Bft. km/h Grad Sektor
Fr, 23.02. 8:30 13 3 24 230° SW
Fr, 23.02. 8:20 13 3 - 230° SW
Fr, 23.02. 8:10 13 3 - 240° SW
Fr, 23.02. 8:00 14 3 36 250° W
Fr, 23.02. 7:50 14 3 - 250° W
Fr, 23.02. 7:40 17 3 - 250° W
Fr, 23.02. 7:30 18 3 32 250° W
Fr, 23.02. 7:00 14 3 40 250° W
Fr, 23.02. 6:30 14 3 40 260° W
Fr, 23.02. 6:00 20 4 44 260° W
Fr, 23.02. 5:30 20 4 44 260° W
Ortszeit Untergrenze Bedeckung Gattung
total tief tief mittel hoch
Fr, 23.02. 7:00 900 m 8/8 4/8 - - -
Fr, 23.02. 1:00 780 m 8/8 6/8 - - -
Do, 22.02. 19:00 480 m 8/8 8/8 - - -
Do, 22.02. 13:00 450 m 8/8 8/8 - - -
Do, 22.02. 7:00 540 m 7/8 7/8 - - -
Do, 22.02. 1:00 1800 m 7/8 7/8 - - -
Mi, 21.02. 19:00 4800 m 8/8 7/8 - - -
Mi, 21.02. 13:00 1800 m 7/8 2/8 - - -
Ortszeit Bedeckungsgrad in Achtel und Wolkenuntergrenze
Fr, 23.02. 8:30 2(720m) 8(3900m)
Fr, 23.02. 8:20 2(720m) 8(3900m)
Fr, 23.02. 8:10 8
Fr, 23.02. 8:00 8(3900m)
Fr, 23.02. 7:50 8(3900m)
Fr, 23.02. 7:40 8
Fr, 23.02. 7:30 8(4200m)
Fr, 23.02. 7:00 3(900m) 4(1020m) 8(4200m)
Fr, 23.02. 6:30 5(900m) 8(3900m)
Fr, 23.02. 6:00 1(930m) 6(4200m) 7(7800m)
Fr, 23.02. 5:30 2(900m) 4(6000m) 7(9000m)
Ortszeit Luftdruck NN (hPa) Tendenz (hPa in 3 Std.)
Fr, 23.02. 7:00 997 + 3,1
Fr, 23.02. 1:00 990 0,0
Do, 22.02. 19:00 992 - 1,4
Do, 22.02. 13:00 997 - 2,1
Do, 22.02. 7:00 1002 - 2,6
Do, 22.02. 1:00 1008 - 2,5
Mi, 21.02. 19:00 1014 - 2,1
Mi, 21.02. 13:00 1018 - 0,9
Ortszeit Luftdruck NN (hPa) Tendenz (hPa in 3 Std.)
Fr, 23.02. 8:30 998 + 2,5
Fr, 23.02. 8:20 998 keine Meldung
Fr, 23.02. 8:10 998 keine Meldung
Fr, 23.02. 8:00 997 + 2,0
Fr, 23.02. 7:50 997 keine Meldung
Fr, 23.02. 7:40 997 keine Meldung
Fr, 23.02. 7:30 997 + 2,9
Fr, 23.02. 7:00 997 + 3,1
Fr, 23.02. 6:30 996 + 2,9
Fr, 23.02. 6:00 996 + 3,1
Fr, 23.02. 5:30 995 + 2,8
Ortszeit Schneehöhe (cm)
Fr, 23.02. 7:00 0
Fr, 23.02. 1:00 0
Do, 22.02. 19:00 0
Do, 22.02. 13:00 0
Do, 22.02. 7:00 0
Do, 22.02. 1:00 0
Mi, 21.02. 19:00 0
Mi, 21.02. 13:00 0
Ortszeit Schneehöhe (cm)
Fr, 23.02. 8:30 0
Fr, 23.02. 8:20 0
Fr, 23.02. 8:10 -
Fr, 23.02. 8:00 0
Fr, 23.02. 7:50 0
Fr, 23.02. 7:40 -
Fr, 23.02. 7:30 0
Fr, 23.02. 7:00 0
Fr, 23.02. 6:30 0
Fr, 23.02. 6:00 0
Fr, 23.02. 5:30 0
Link zu dieser Seite / Seite empfehlen

Das Wetter in ...